Roanoke, VA (24014)

9:02 AM EDT on March 27, 2015 (GMT -0400)
APRSWXNET Roanoke VA US | | Change Station
CLOSE
Current Station
Personal Weather Station
Location: Roanoke, VA
Elevation: 1499 ft
Nearby Weather Stations

Elev 1499 ft 37.25 °N, 79.93 °W | Updated 47 minutes ago

Rain
Rain
43 °F
Feels Like 43 °F
N
0
Wind Variable Wind from ENE
Gusts 0.0 mph

Today
High -- | Low -- °F
--% Chance of Precip.
Yesterday
High -- | Low -- °F
Precip. -- in
7:13 AM 7:37 PM
First Quarter, 52% visible
Pressure 29.80 in
Visibility 10.0 miles
Clouds Few 4900 ft
Mostly Cloudy 6000 ft
Overcast 7500 ft
Windchill 43 °F
Dew Point 42 °F
Humidity 96%
Rainfall in
Snow Depth Not available.
UV 0 out of 12
Pollen 6.40 out of 12
Air Quality Not available.
Flu Activity Not available.
METAR KROA 271254Z 31007KT 10SM -RA FEW049 BKN060 OVC075 06/03 A2980 RMK AO2 RAB1157 SLP090 P0000 T00560028

More Conditions Fewer Conditions

Pressure 29.80 in
Visibility 10.0 miles
Clouds Few 4900 ft
Mostly Cloudy 6000 ft
Overcast 7500 ft
Windchill 43 °F
Dew Point 42 °F
Humidity 96%
Rainfall in
Snow Depth Not available.
UV 0 out of 12
Pollen 6.40 out of 12
Air Quality Not available.
Flu Activity Not available.
METAR KROA 271254Z 31007KT 10SM -RA FEW049 BKN060 OVC075 06/03 A2980 RMK AO2 RAB1157 SLP090 P0000 T00560028

More Conditions Fewer Conditions

10-Day Weather Forecast

Almanac

Astronomy

Mar. 27, 2015 Rise Set
Actual Time
Civil Twilight
Nautical Twilight
Astronomical Twilight
Moon
Length of Visible Light
Length of Day
Tomorrow will be .
, % of the Moon is Illuminated

Today's Extremes

State Highs State Lows

Community

WunderPhotos

Upload Photos

1,808,726 photos uploaded!

WunderBlogs® & News

Nearby

Air Quality

  Air Quality AQ Index Pollutant
Not available.

Snow Depth

Station Depth Elevation

Earthquake Activity

City Distance Mag. Time & Date
Minimum magnitude displayed is 2.5.

Coastal Water Temperatures

Place Temperature

Stations

Nearby Weather Stations

Station Location Temp. Windchill Dew Point Humidity Wind Precip. Elev Updated Type